Time;durP1;ratioP1;P1;durP2;ratioP2;P2;SDS_P1;SDS_P2;PMS_P1;PMS_P2;Temp;Humidity;BMP_temperature;BMP_pressure;BME280_temperature;BME280_humidity;BME280_pressure;Samples;Min_cycle;Max_cycle;Signal;HPM_P1;HPM_P2
2022/09/30 00:01:31;;;;;;;4.63;4.32;;;9.60;99.90;;;;;;5012727;28;20215;-71
2022/09/30 00:03:58;;;;;;;4.80;4.40;;;9.70;99.90;;;;;;5013684;28;20169;-72
2022/09/30 00:06:25;;;;;;;4.30;3.80;;;9.70;99.90;;;;;;5013627;28;20204;-72
2022/09/30 00:08:52;;;;;;;4.93;4.38;;;9.70;99.90;;;;;;5013075;28;20189;-71
2022/09/30 00:11:20;;;;;;;4.43;4.00;;;9.60;99.90;;;;;;5012857;28;20200;-71
2022/09/30 00:13:49;;;;;;;4.55;4.15;;;9.50;99.90;;;;;;5013398;28;20212;-72
2022/09/30 00:16:17;;;;;;;4.38;3.97;;;9.50;99.90;;;;;;5013398;28;20165;-72
2022/09/30 00:18:43;;;;;;;4.30;3.97;;;9.40;99.90;;;;;;5012884;28;20177;-72
2022/09/30 00:21:11;;;;;;;4.35;3.95;;;9.50;99.90;;;;;;5013035;28;20177;-74
2022/09/30 00:23:37;;;;;;;4.25;3.83;;;9.50;99.90;;;;;;5013320;28;20215;-72
2022/09/30 00:26:06;;;;;;;5.82;4.10;;;9.60;99.90;;;;;;5012520;28;20192;-72
2022/09/30 00:28:33;;;;;;;4.80;4.38;;;9.70;99.90;;;;;;5012988;28;20192;-72
2022/09/30 00:31:04;;;;;;;4.78;4.32;;;9.60;99.90;;;;;;5012725;28;20177;-71
2022/09/30 00:33:30;;;;;;;3.97;3.67;;;9.60;99.90;;;;;;5013107;28;20185;-71
2022/09/30 00:35:56;;;;;;;5.43;4.82;;;9.50;99.90;;;;;;5012468;28;20187;-71
2022/09/30 00:38:21;;;;;;;4.70;4.30;;;9.50;99.90;;;;;;5013102;28;20165;-71
2022/09/30 00:40:47;;;;;;;5.07;4.10;;;9.50;99.90;;;;;;5012756;28;20185;-71
2022/09/30 00:43:19;;;;;;;4.57;4.25;;;9.40;99.90;;;;;;5012351;28;20225;-71
2022/09/30 00:45:53;;;;;;;4.25;3.95;;;9.30;99.90;;;;;;5012529;28;20191;-71
2022/09/30 00:48:30;;;;;;;5.03;4.53;;;9.30;99.90;;;;;;5012891;28;20538;-71
2022/09/30 00:50:56;;;;;;;4.53;4.20;;;9.30;99.90;;;;;;5011985;28;20183;-71
2022/09/30 00:53:28;;;;;;;5.28;4.78;;;9.30;99.90;;;;;;5012625;28;20565;-71
2022/09/30 00:56:02;;;;;;;4.38;4.07;;;9.20;99.90;;;;;;5012723;28;20656;-71
2022/09/30 00:58:53;;;;;;;4.32;3.92;;;9.30;99.90;;;;;;5012664;28;20181;-72
2022/09/30 01:01:19;;;;;;;4.88;4.30;;;9.30;99.90;;;;;;5011911;28;20267;-72
2022/09/30 01:03:49;;;;;;;4.40;3.95;;;9.30;99.90;;;;;;5012091;28;20639;-72
2022/09/30 01:06:16;;;;;;;5.57;4.50;;;9.20;99.90;;;;;;5012731;28;20201;-72
2022/09/30 01:08:44;;;;;;;5.28;4.78;;;9.20;99.90;;;;;;5011834;28;20267;-71
2022/09/30 01:11:09;;;;;;;5.15;4.75;;;9.20;99.90;;;;;;5011249;28;20181;-73
2022/09/30 01:13:38;;;;;;;5.20;4.28;;;9.20;99.90;;;;;;5012456;28;20546;-72
2022/09/30 01:16:31;;;;;;;4.88;4.38;;;9.20;99.90;;;;;;5011539;28;20181;-72
2022/09/30 01:18:57;;;;;;;4.70;4.30;;;9.20;99.90;;;;;;5012404;28;20166;-72
2022/09/30 01:21:47;;;;;;;4.95;4.45;;;9.30;99.90;;;;;;5011712;28;20668;-72
2022/09/30 01:24:54;;;;;;;5.38;4.28;;;9.20;99.90;;;;;;5012241;28;20276;-71
2022/09/30 01:27:58;;;;;;;5.18;4.68;;;9.20;99.90;;;;;;4992363;28;20616;-71
2022/09/30 01:31:01;;;;;;;7.22;4.68;;;9.30;99.90;;;;;;4992320;28;20628;-72
2022/09/30 01:33:33;;;;;;;5.75;4.55;;;9.40;99.90;;;;;;4993300;28;20217;-72
2022/09/30 01:36:23;;;;;;;4.80;4.40;;;9.40;99.90;;;;;;5012204;28;20166;-72
2022/09/30 01:38:55;;;;;;;5.00;4.20;;;9.40;99.90;;;;;;5011810;28;20219;-72
2022/09/30 01:41:51;;;;;;;5.40;4.88;;;9.40;99.90;;;;;;5011749;28;20235;-72
2022/09/30 01:44:41;;;;;;;4.50;4.10;;;9.30;99.90;;;;;;4992399;28;20213;-72
2022/09/30 01:47:24;;;;;;;4.45;4.05;;;9.20;99.90;;;;;;4992424;28;20212;-71
2022/09/30 01:50:09;;;;;;;5.07;4.65;;;9.20;99.90;;;;;;4994465;28;20174;-71
2022/09/30 01:52:39;;;;;;;4.40;3.70;;;9.20;99.90;;;;;;4992292;28;20656;-71
2022/09/30 01:55:28;;;;;;;4.05;3.70;;;9.30;99.90;;;;;;4991838;28;20684;-72
2022/09/30 01:57:57;;;;;;;4.40;4.10;;;9.30;99.90;;;;;;4994370;28;20260;-71
2022/09/30 02:00:23;;;;;;;4.03;3.70;;;9.40;99.90;;;;;;5011573;28;20170;-72
2022/09/30 02:02:59;;;;;;;4.32;4.00;;;9.40;99.90;;;;;;5012029;28;20209;-72
2022/09/30 02:05:44;;;;;;;8.48;4.60;;;9.60;99.90;;;;;;5011997;28;20181;-71
2022/09/30 02:08:18;;;;;;;4.70;3.90;;;9.60;99.90;;;;;;5011266;28;20586;-72
2022/09/30 02:11:13;;;;;;;4.25;3.92;;;9.60;99.90;;;;;;5011632;28;20168;-72
2022/09/30 02:14:05;;;;;;;4.65;4.03;;;9.50;99.90;;;;;;5011159;28;20247;-72
2022/09/30 02:16:39;;;;;;;5.05;4.57;;;9.50;99.90;;;;;;5010460;28;20231;-71
2022/09/30 02:19:19;;;;;;;4.70;4.40;;;9.50;99.90;;;;;;5012088;28;20255;-71
2022/09/30 02:21:51;;;;;;;4.68;4.20;;;9.50;99.90;;;;;;5010174;28;20671;-72
2022/09/30 02:24:21;;;;;;;5.18;4.68;;;9.50;99.90;;;;;;5011495;28;20687;-72
2022/09/30 02:26:48;;;;;;;4.28;3.97;;;9.50;99.90;;;;;;5011359;28;20200;-72
2022/09/30 02:29:23;;;;;;;4.63;4.20;;;9.50;99.90;;;;;;5012934;28;20612;-72
2022/09/30 02:31:53;;;;;;;6.90;4.72;;;9.50;99.90;;;;;;5015043;28;20741;-72
2022/09/30 02:34:41;;;;;;;5.13;4.68;;;9.50;99.90;;;;;;5014761;28;20208;-73
2022/09/30 02:37:16;;;;;;;4.78;4.40;;;9.60;99.90;;;;;;5015477;28;20181;-71
2022/09/30 02:40:06;;;;;;;4.72;4.30;;;9.60;99.90;;;;;;5015317;28;20262;-71
2022/09/30 02:42:32;;;;;;;4.85;4.40;;;9.50;99.90;;;;;;5014424;28;20212;-71
2022/09/30 02:45:07;;;;;;;5.07;4.63;;;9.40;99.90;;;;;;5015274;28;20705;-71
2022/09/30 02:47:47;;;;;;;4.75;4.35;;;9.30;99.90;;;;;;5014864;28;20580;-71
2022/09/30 02:50:38;;;;;;;7.13;4.80;;;9.30;99.90;;;;;;5014879;28;20175;-71
2022/09/30 02:53:41;;;;;;;5.65;4.10;;;9.20;99.90;;;;;;4995407;28;20202;-71
2022/09/30 02:56:12;;;;;;;4.32;4.03;;;9.20;99.90;;;;;;4995350;28;20185;-71
2022/09/30 02:58:39;;;;;;;5.00;4.57;;;9.20;99.90;;;;;;5009946;28;20178;-71
2022/09/30 03:01:11;;;;;;;7.15;4.22;;;9.20;99.90;;;;;;5014632;28;20170;-71
2022/09/30 03:03:39;;;;;;;4.65;4.28;;;9.20;99.90;;;;;;5014426;28;20674;-71
2022/09/30 03:06:06;;;;;;;5.18;4.78;;;9.10;99.90;;;;;;5009115;28;20247;-71
2022/09/30 03:08:32;;;;;;;6.20;4.43;;;9.10;99.90;;;;;;5009193;28;20173;-71
2022/09/30 03:10:58;;;;;;;6.15;4.38;;;9.00;99.90;;;;;;5014520;28;20173;-71
2022/09/30 03:13:52;;;;;;;5.30;4.40;;;9.00;99.90;;;;;;5014607;28;20252;-71
2022/09/30 03:16:32;;;;;;;4.88;4.47;;;9.00;99.90;;;;;;4996690;28;20216;-71
2022/09/30 03:19:10;;;;;;;5.22;4.72;;;8.90;99.90;;;;;;4995033;28;20261;-71
2022/09/30 03:21:52;;;;;;;4.60;4.30;;;8.90;99.90;;;;;;4994224;28;20232;-71
2022/09/30 03:24:20;;;;;;;4.90;4.50;;;9.00;99.90;;;;;;4995275;28;20185;-71
2022/09/30 03:27:13;;;;;;;5.35;4.68;;;9.10;99.90;;;;;;4995258;28;20549;-71
2022/09/30 03:30:02;;;;;;;8.75;4.75;;;9.10;99.90;;;;;;4994520;28;20560;-71
2022/09/30 03:32:47;;;;;;;7.07;4.88;;;9.10;99.90;;;;;;4994569;28;20194;-72
2022/09/30 03:35:34;;;;;;;5.13;4.38;;;9.00;99.90;;;;;;5004228;28;20212;-71
2022/09/30 03:38:29;;;;;;;9.25;4.40;;;9.00;99.90;;;;;;5014122;28;20239;-72
2022/09/30 03:41:36;;;;;;;4.35;3.95;;;9.20;99.90;;;;;;5010313;28;20180;-72
2022/09/30 03:44:18;;;;;;;4.80;4.50;;;9.30;99.90;;;;;;4994138;28;20706;-72
2022/09/30 03:47:11;;;;;;;4.90;4.40;;;9.30;99.90;;;;;;4994761;28;20182;-71
2022/09/30 03:49:42;;;;;;;5.53;5.03;;;9.20;99.90;;;;;;4992225;28;20561;-71
2022/09/30 03:52:11;;;;;;;5.10;4.70;;;9.20;99.90;;;;;;4994623;28;20233;-71
2022/09/30 03:55:10;;;;;;;4.70;4.35;;;9.10;99.90;;;;;;4994397;28;20731;-71
2022/09/30 03:57:36;;;;;;;5.75;4.43;;;8.80;99.90;;;;;;4992233;28;20193;-71
2022/09/30 04:00:04;;;;;;;6.85;4.68;;;8.60;99.90;;;;;;4994269;28;20170;-71
2022/09/30 04:02:30;;;;;;;7.18;5.20;;;8.50;99.90;;;;;;4994973;28;20592;-72
2022/09/30 04:04:56;;;;;;;4.95;4.55;;;8.40;99.90;;;;;;5009360;28;20189;-71
2022/09/30 04:07:21;;;;;;;5.85;4.95;;;8.40;99.90;;;;;;4994166;28;20174;-72
2022/09/30 04:09:47;;;;;;;4.82;4.32;;;8.40;99.90;;;;;;4994129;28;20728;-73
2022/09/30 04:12:13;;;;;;;5.60;4.65;;;8.40;99.90;;;;;;4994187;28;20205;-72
2022/09/30 04:14:38;;;;;;;4.72;4.28;;;8.50;99.90;;;;;;4993493;28;20197;-72
2022/09/30 04:17:05;;;;;;;5.45;4.57;;;8.40;99.90;;;;;;5001073;28;20177;-72
2022/09/30 04:19:30;;;;;;;6.95;4.38;;;8.30;99.90;;;;;;5004520;28;20204;-72
2022/09/30 04:21:56;;;;;;;5.03;4.30;;;8.20;99.90;;;;;;5008394;28;20815;-72
2022/09/30 04:24:23;;;;;;;5.38;4.43;;;8.20;99.90;;;;;;5013365;28;20177;-72
2022/09/30 04:26:49;;;;;;;5.22;4.72;;;8.20;99.90;;;;;;5011859;28;20641;-73
2022/09/30 04:29:16;;;;;;;5.35;4.40;;;8.20;99.90;;;;;;5012749;28;20189;-73
2022/09/30 04:31:41;;;;;;;4.70;4.30;;;8.20;99.90;;;;;;5012315;28;20201;-72
2022/09/30 04:34:09;;;;;;;4.80;4.40;;;8.10;99.90;;;;;;5006518;28;20263;-71
2022/09/30 04:36:34;;;;;;;4.78;4.38;;;8.10;99.90;;;;;;5011888;28;20185;-71
2022/09/30 04:39:00;;;;;;;5.43;4.97;;;8.00;99.90;;;;;;5013118;28;20180;-72
2022/09/30 04:41:26;;;;;;;6.10;4.50;;;7.90;99.90;;;;;;5012666;28;20683;-72
2022/09/30 04:43:51;;;;;;;5.82;4.63;;;7.70;99.90;;;;;;5012911;28;20208;-72
2022/09/30 04:46:19;;;;;;;5.63;5.13;;;7.60;99.90;;;;;;4994152;28;20220;-72
2022/09/30 04:48:45;;;;;;;5.15;4.75;;;7.50;99.90;;;;;;4999178;28;20201;-72
2022/09/30 04:51:16;;;;;;;4.80;4.32;;;7.50;99.90;;;;;;5006633;28;20193;-72
2022/09/30 04:53:42;;;;;;;4.95;4.55;;;7.60;99.90;;;;;;5006914;28;20189;-72
2022/09/30 04:56:09;;;;;;;5.95;4.82;;;7.70;99.90;;;;;;4998631;28;20224;-72
2022/09/30 04:58:35;;;;;;;6.32;5.32;;;7.70;99.90;;;;;;5004310;28;20281;-72
2022/09/30 05:01:08;;;;;;;6.32;5.72;;;7.70;99.90;;;;;;5011864;28;20256;-75
2022/09/30 05:03:34;;;;;;;5.70;4.88;;;7.70;99.90;;;;;;5007300;28;20174;-74
2022/09/30 05:06:01;;;;;;;5.53;5.03;;;7.70;99.90;;;;;;5010385;28;20195;-75
2022/09/30 05:08:26;;;;;;;5.18;4.78;;;7.60;99.90;;;;;;5012743;28;20202;-76
2022/09/30 05:10:56;;;;;;;6.15;5.32;;;7.40;99.90;;;;;;5007114;28;20232;-74
2022/09/30 05:13:22;;;;;;;7.93;5.90;;;7.40;99.90;;;;;;5003007;28;20180;-74
2022/09/30 05:15:48;;;;;;;6.32;5.75;;;7.40;99.90;;;;;;5004780;28;20254;-73
2022/09/30 05:18:15;;;;;;;5.68;5.10;;;7.40;99.90;;;;;;5002096;28;20188;-74
2022/09/30 05:20:41;;;;;;;6.55;5.72;;;7.50;99.90;;;;;;5005048;28;20275;-74
2022/09/30 05:23:06;;;;;;;5.75;5.25;;;7.50;99.90;;;;;;5007756;28;20201;-74
2022/09/30 05:25:34;;;;;;;6.47;5.50;;;7.40;99.90;;;;;;5002622;28;20185;-75
2022/09/30 05:28:00;;;;;;;9.57;6.40;;;7.40;99.90;;;;;;5006013;28;20185;-77
2022/09/30 05:30:26;;;;;;;9.82;6.60;;;7.30;99.90;;;;;;4999766;28;20188;-76
2022/09/30 05:32:52;;;;;;;9.55;6.47;;;7.30;99.90;;;;;;4997099;28;20197;-82
2022/09/30 05:35:17;;;;;;;6.10;5.60;;;7.30;99.90;;;;;;4997487;28;20732;-77
2022/09/30 05:37:43;;;;;;;6.38;5.85;;;7.30;99.90;;;;;;4993011;28;20641;-75
2022/09/30 05:40:09;;;;;;;8.20;6.82;;;7.30;99.90;;;;;;4991946;28;20174;-75
2022/09/30 05:42:35;;;;;;;7.85;6.15;;;7.30;99.90;;;;;;4992893;28;20232;-74
2022/09/30 05:45:05;;;;;;;7.00;6.38;;;7.30;99.90;;;;;;5009023;28;20185;-74
2022/09/30 05:47:32;;;;;;;8.40;7.40;;;7.40;99.90;;;;;;5009782;28;20259;-75
2022/09/30 05:49:58;;;;;;;7.20;6.47;;;7.40;99.90;;;;;;5006707;28;20688;-75
2022/09/30 05:52:24;;;;;;;7.13;6.53;;;7.50;99.90;;;;;;5003493;28;20197;-75
2022/09/30 05:54:49;;;;;;;8.38;7.47;;;7.60;99.90;;;;;;5004940;28;20267;-76
2022/09/30 05:57:16;;;;;;;8.85;6.80;;;7.70;99.90;;;;;;5011461;28;20212;-75
2022/09/30 05:59:42;;;;;;;9.18;8.23;;;7.70;99.90;;;;;;5010797;28;20566;-77
2022/09/30 06:02:09;;;;;;;8.25;6.75;;;7.80;99.90;;;;;;5006230;28;20213;-77
2022/09/30 06:04:34;;;;;;;8.07;6.68;;;7.90;99.90;;;;;;5015553;28;20181;-75
2022/09/30 06:07:00;;;;;;;7.78;6.95;;;8.10;99.90;;;;;;5009650;28;20729;-81
2022/09/30 06:09:26;;;;;;;8.70;7.78;;;8.10;99.90;;;;;;5016546;28;20203;-75
2022/09/30 06:11:57;;;;;;;7.97;7.18;;;8.20;99.90;;;;;;5014793;28;20200;-75
2022/09/30 06:14:23;;;;;;;10.43;8.02;;;8.30;99.90;;;;;;5002766;28;20208;-75
2022/09/30 06:16:49;;;;;;;8.18;7.38;;;8.30;99.90;;;;;;4996521;28;20473;-76
2022/09/30 06:19:15;;;;;;;9.10;7.28;;;8.30;99.90;;;;;;4996332;28;20224;-76
2022/09/30 06:21:40;;;;;;;8.27;7.35;;;8.40;99.90;;;;;;5007532;28;20209;-75
2022/09/30 06:24:11;;;;;;;9.98;7.95;;;8.40;99.90;;;;;;5015511;28;20695;-74
2022/09/30 06:26:37;;;;;;;8.18;7.40;;;8.40;99.90;;;;;;5014480;28;20181;-75
2022/09/30 06:29:03;;;;;;;11.02;7.45;;;8.40;99.90;;;;;;5005878;28;20194;-76
2022/09/30 06:31:29;;;;;;;8.40;7.60;;;8.50;99.90;;;;;;5001840;28;20228;-76
2022/09/30 06:33:55;;;;;;;7.65;7.05;;;8.50;99.90;;;;;;5016155;28;20279;-75
2022/09/30 06:36:21;;;;;;;8.35;7.43;;;8.60;99.90;;;;;;5015466;28;20666;-76
2022/09/30 06:38:50;;;;;;;8.10;7.03;;;8.80;99.90;;;;;;5015904;28;20181;-74
2022/09/30 06:41:16;;;;;;;11.52;7.30;;;9.10;99.90;;;;;;5012589;28;20859;-78
2022/09/30 06:43:42;;;;;;;7.13;6.57;;;9.30;99.90;;;;;;5008592;28;20267;-76
2022/09/30 06:46:10;;;;;;;9.15;6.90;;;9.50;99.90;;;;;;5004284;28;20181;-75
2022/09/30 06:48:36;;;;;;;9.93;6.88;;;9.50;99.90;;;;;;5008272;28;20182;-74
2022/09/30 06:51:01;;;;;;;9.60;8.00;;;9.50;99.90;;;;;;5012626;28;20180;-74
2022/09/30 06:53:28;;;;;;;7.68;6.88;;;9.60;99.90;;;;;;5014901;28;20547;-74
2022/09/30 06:55:57;;;;;;;7.45;6.85;;;9.80;99.90;;;;;;5014947;28;20679;-74
2022/09/30 06:58:23;;;;;;;7.50;6.78;;;9.80;99.90;;;;;;5015000;28;20173;-74
2022/09/30 07:01:15;;;;;;;8.25;7.50;;;9.70;99.90;;;;;;5014130;28;20255;-75
2022/09/30 07:03:43;;;;;;;7.38;6.65;;;9.90;99.90;;;;;;5014625;28;20224;-75
2022/09/30 07:06:09;;;;;;;8.05;7.30;;;9.80;99.90;;;;;;5014854;28;20252;-75
2022/09/30 07:08:37;;;;;;;7.75;7.05;;;9.90;99.90;;;;;;5008107;28;20177;-76
2022/09/30 07:11:13;;;;;;;8.15;6.97;;;9.90;99.90;;;;;;5003518;28;20188;-75
2022/09/30 07:13:46;;;;;;;8.00;7.20;;;10.10;99.90;;;;;;5007705;28;20240;-75
2022/09/30 07:16:13;;;;;;;7.88;7.10;;;10.40;99.90;;;;;;5002381;28;20707;-75
2022/09/30 07:18:41;;;;;;;6.78;6.28;;;10.50;99.90;;;;;;5002838;28;20550;-76
2022/09/30 07:21:07;;;;;;;8.13;7.47;;;10.60;99.90;;;;;;5004634;28;20235;-74
2022/09/30 07:23:33;;;;;;;6.80;6.20;;;10.80;99.90;;;;;;5007696;28;20174;-74
2022/09/30 07:26:03;;;;;;;6.88;6.38;;;10.80;99.90;;;;;;5005503;28;20200;-77
2022/09/30 07:28:32;;;;;;;6.90;6.40;;;10.90;99.90;;;;;;5003516;28;20193;-73
2022/09/30 07:31:02;;;;;;;7.78;7.07;;;10.90;99.90;;;;;;4999566;28;20224;-74
2022/09/30 07:33:30;;;;;;;7.30;6.68;;;11.00;99.90;;;;;;5005896;28;20173;-75
2022/09/30 07:36:04;;;;;;;6.93;6.32;;;11.10;99.90;;;;;;5004376;28;20205;-74
2022/09/30 07:38:31;;;;;;;6.35;5.85;;;11.40;99.90;;;;;;5004944;28;20232;-74
2022/09/30 07:40:58;;;;;;;6.53;5.93;;;11.60;99.90;;;;;;5007100;28;20173;-74
2022/09/30 07:43:37;;;;;;;6.70;6.10;;;11.80;99.90;;;;;;5008165;28;20174;-75
2022/09/30 07:46:13;;;;;;;6.55;5.88;;;11.80;99.90;;;;;;5008063;28;20186;-74
2022/09/30 07:48:46;;;;;;;6.82;6.10;;;12.10;99.90;;;;;;5010172;28;20181;-73
2022/09/30 07:51:24;;;;;;;6.45;5.95;;;12.20;99.90;;;;;;5005879;28;20886;-75
2022/09/30 07:53:53;;;;;;;6.90;6.20;;;12.40;99.90;;;;;;5006853;28;20204;-76
2022/09/30 07:56:20;;;;;;;7.18;6.57;;;12.40;99.90;;;;;;5002686;28;20189;-74
2022/09/30 07:58:47;;;;;;;7.70;6.15;;;12.40;99.90;;;;;;5000709;28;20197;-74
2022/09/30 08:01:13;;;;;;;7.07;6.40;;;12.70;99.90;;;;;;5000672;28;20177;-74
2022/09/30 08:03:43;;;;;;;7.13;6.45;;;12.80;99.90;;;;;;5003958;28;20268;-75
2022/09/30 08:06:11;;;;;;;6.72;6.22;;;13.10;99.90;;;;;;5005862;28;20174;-75
2022/09/30 08:08:37;;;;;;;6.40;5.90;;;13.30;99.90;;;;;;5007206;28;20239;-76
2022/09/30 08:11:04;;;;;;;7.95;6.63;;;13.60;99.90;;;;;;5010517;28;20177;-76
2022/09/30 08:13:31;;;;;;;6.82;6.22;;;13.80;99.90;;;;;;5011912;28;20547;-74
2022/09/30 08:15:56;;;;;;;7.28;6.55;;;14.20;99.90;;;;;;5014733;28;20205;-74
2022/09/30 08:18:22;;;;;;;6.68;6.07;;;14.50;99.90;;;;;;5011984;28;20177;-74
2022/09/30 08:20:48;;;;;;;5.88;5.38;;;14.90;99.90;;;;;;5009416;28;20181;-74
2022/09/30 08:23:14;;;;;;;5.72;5.30;;;15.00;99.90;;;;;;5014321;28;20204;-74
2022/09/30 08:25:39;;;;;;;6.35;5.85;;;15.20;99.90;;;;;;5014047;28;20546;-74
2022/09/30 08:28:05;;;;;;;5.90;5.50;;;15.20;99.90;;;;;;5013170;28;20192;-74
2022/09/30 08:30:34;;;;;;;5.97;5.57;;;14.90;99.90;;;;;;5013167;28;20177;-73
2022/09/30 08:32:59;;;;;;;6.63;6.13;;;15.00;99.90;;;;;;5014011;28;20201;-73
2022/09/30 08:35:25;;;;;;;5.95;5.50;;;15.20;99.90;;;;;;5012152;28;20731;-73
2022/09/30 08:37:51;;;;;;;6.55;5.55;;;15.20;99.90;;;;;;5013640;28;20185;-74
2022/09/30 08:40:22;;;;;;;5.68;5.28;;;15.60;99.90;;;;;;5015185;28;20589;-72
2022/09/30 08:43:00;;;;;;;5.80;5.30;;;15.80;99.90;;;;;;5015043;28;20200;-72
2022/09/30 08:45:51;;;;;;;6.20;5.70;;;15.90;99.90;;;;;;5010625;28;20188;-73
2022/09/30 08:48:24;;;;;;;5.55;5.15;;;15.50;99.90;;;;;;5007971;28;20255;-72
2022/09/30 08:51:09;;;;;;;6.10;5.70;;;15.30;99.90;;;;;;5015290;28;20173;-75
2022/09/30 08:53:40;;;;;;;6.10;5.60;;;15.10;99.90;;;;;;5008584;28;20177;-73
2022/09/30 08:56:06;;;;;;;5.10;4.70;;;15.10;99.90;;;;;;5005756;28;20560;-75
2022/09/30 08:58:42;;;;;;;4.93;4.63;;;15.10;99.90;;;;;;5011012;28;20186;-75
2022/09/30 09:01:31;;;;;;;6.60;5.97;;;14.90;99.90;;;;;;5002906;28;20316;-75
2022/09/30 09:03:59;;;;;;;6.20;5.70;;;14.90;99.90;;;;;;4993889;28;20181;-74
2022/09/30 09:07:01;;;;;;;6.43;5.82;;;14.90;99.90;;;;;;5003764;28;20272;-75
2022/09/30 09:09:39;;;;;;;5.63;5.22;;;14.80;99.90;;;;;;5007141;28;20666;-74
2022/09/30 09:12:35;;;;;;;5.63;5.22;;;15.20;99.90;;;;;;5012986;28;20220;-75
2022/09/30 09:15:26;;;;;;;5.82;5.35;;;15.80;99.90;;;;;;5010444;28;20240;-75
2022/09/30 09:18:33;;;;;;;5.53;5.13;;;17.20;99.90;;;;;;5001309;28;20185;-75
2022/09/30 09:21:20;;;;;;;5.53;5.07;;;18.10;99.90;;;;;;5001498;28;20181;-75
2022/09/30 09:23:48;;;;;;;4.78;4.38;;;18.40;99.90;;;;;;5006268;28;20200;-75
2022/09/30 09:26:14;;;;;;;4.70;4.18;;;18.90;99.90;;;;;;4996857;28;20557;-76
2022/09/30 09:29:05;;;;;;;5.25;4.85;;;19.40;99.90;;;;;;5012844;28;20165;-74
2022/09/30 09:31:30;;;;;;;4.82;4.43;;;20.00;99.90;;;;;;5011813;28;20201;-74
2022/09/30 09:34:07;;;;;;;4.40;4.10;;;21.20;99.90;;;;;;5012065;28;20208;-76
2022/09/30 09:37:15;;;;;;;4.57;4.28;;;22.80;97.20;;;;;;5014477;28;20547;-78
2022/09/30 09:39:40;;;;;;;4.40;4.10;;;24.30;90.90;;;;;;5004728;28;20177;-77
2022/09/30 09:42:24;;;;;;;4.50;4.10;;;25.40;84.40;;;;;;5006999;28;20247;-78
2022/09/30 09:45:07;;;;;;;4.68;4.38;;;25.70;80.70;;;;;;5015588;28;20229;-78
2022/09/30 09:47:33;;;;;;;3.70;3.50;;;25.60;77.70;;;;;;5013418;28;20178;-78
2022/09/30 09:50:02;;;;;;;4.03;3.72;;;25.50;77.40;;;;;;5018696;28;20230;-78
2022/09/30 09:52:42;;;;;;;5.50;4.18;;;25.20;77.60;;;;;;5003255;28;20685;-77
2022/09/30 09:55:09;;;;;;;4.07;3.88;;;24.80;76.90;;;;;;4997627;28;20682;-77
2022/09/30 09:57:34;;;;;;;5.05;4.55;;;24.30;78.30;;;;;;5009894;28;20687;-77
2022/09/30 10:03:25;;;;;;;4.75;4.43;;;23.30;79.50;;;;;;5011892;28;20563;-75
2022/09/30 10:06:07;;;;;;;4.65;4.35;;;22.50;83.10;;;;;;5008049;28;20259;-78
2022/09/30 10:08:37;;;;;;;4.75;4.40;;;22.10;85.50;;;;;;5011967;28;20231;-75
2022/09/30 10:11:22;;;;;;;4.97;4.47;;;21.60;86.60;;;;;;5011579;28;20176;-75
2022/09/30 10:13:49;;;;;;;4.95;4.55;;;20.80;88.40;;;;;;5006839;28;20212;-75
2022/09/30 10:16:34;;;;;;;4.75;4.35;;;20.60;90.50;;;;;;4992622;28;20170;-75
2022/09/30 10:19:00;;;;;;;4.97;4.50;;;20.40;90.30;;;;;;4992523;28;20217;-74
2022/09/30 10:21:28;;;;;;;5.05;4.57;;;20.30;91.50;;;;;;4994355;28;20284;-75
2022/09/30 10:23:54;;;;;;;4.43;4.03;;;20.40;92.10;;;;;;5012011;28;20165;-74
2022/09/30 10:26:21;;;;;;;6.18;4.82;;;20.90;90.30;;;;;;5007123;28;20547;-74
2022/09/30 10:29:24;;;;;;;4.53;4.22;;;21.20;90.40;;;;;;5006394;28;20786;-73
2022/09/30 10:31:51;;;;;;;4.95;4.65;;;21.50;90.30;;;;;;4999013;28;20237;-74
2022/09/30 10:34:41;;;;;;;4.22;3.92;;;21.70;89.50;;;;;;5011194;28;20288;-77
2022/09/30 10:37:08;;;;;;;4.82;4.38;;;21.40;87.80;;;;;;5008640;28;20170;-75
2022/09/30 10:39:36;;;;;;;5.00;4.63;;;21.70;88.50;;;;;;5006561;28;20194;-74
2022/09/30 10:42:06;;;;;;;4.20;3.90;;;22.30;88.10;;;;;;4994361;28;20198;-75
2022/09/30 10:44:55;;;;;;;4.70;4.30;;;22.40;85.60;;;;;;5007421;28;20212;-77
2022/09/30 10:47:26;;;;;;;4.28;3.97;;;22.70;84.60;;;;;;5003330;28;20225;-75
2022/09/30 10:49:55;;;;;;;4.45;4.18;;;22.80;83.00;;;;;;5003773;28;20181;-76
2022/09/30 10:52:27;;;;;;;4.03;3.72;;;24.10;80.70;;;;;;5008867;28;20233;-76
2022/09/30 10:54:56;;;;;;;4.13;3.53;;;25.40;76.00;;;;;;5009811;28;20201;-76
2022/09/30 10:57:28;;;;;;;3.13;2.92;;;25.60;73.50;;;;;;5009770;28;20192;-75
2022/09/30 11:00:01;;;;;;;3.45;3.15;;;25.50;71.20;;;;;;5010290;28;20170;-75
2022/09/30 11:02:34;;;;;;;4.55;3.78;;;25.30;71.70;;;;;;5006143;28;20204;-75
2022/09/30 11:05:19;;;;;;;2.95;2.75;;;25.70;69.60;;;;;;5009054;28;20193;-74
2022/09/30 11:08:20;;;;;;;2.65;2.45;;;25.80;69.70;;;;;;5008046;28;20177;-75
2022/09/30 11:11:13;;;;;;;17.58;10.20;;;25.50;68.30;;;;;;5004933;28;20243;-75
2022/09/30 11:14:09;;;;;;;3.28;2.97;;;25.80;68.50;;;;;;5009856;28;20185;-75
2022/09/30 11:16:59;;;;;;;8.50;4.55;;;25.90;66.00;;;;;;5005687;28;20319;-76
2022/09/30 11:19:50;;;;;;;3.03;2.53;;;26.00;68.00;;;;;;5003772;28;20174;-73
2022/09/30 11:22:28;;;;;;;2.42;2.17;;;27.20;65.70;;;;;;5000057;28;20236;-75
2022/09/30 11:24:56;;;;;;;2.00;1.90;;;27.70;61.60;;;;;;5006725;28;20199;-74
2022/09/30 11:27:21;;;;;;;7.07;3.47;;;27.60;60.80;;;;;;5005877;28;20193;-74
2022/09/30 11:30:11;;;;;;;1.90;1.80;;;28.50;58.00;;;;;;5004494;28;20548;-74
2022/09/30 11:33:00;;;;;;;1.70;1.65;;;29.50;55.80;;;;;;5004722;28;20608;-75
2022/09/30 11:35:31;;;;;;;2.47;1.77;;;31.40;51.30;;;;;;5010386;28;20212;-74
2022/09/30 11:38:15;;;;;;;2.17;2.08;;;33.10;49.50;;;;;;5012294;28;20181;-74
2022/09/30 11:41:07;;;;;;;2.00;1.90;;;33.50;48.50;;;;;;5009034;28;20185;-73
2022/09/30 11:44:12;;;;;;;2.17;2.08;;;34.60;45.70;;;;;;4994622;28;20197;-73
2022/09/30 11:47:09;;;;;;;1.40;1.30;;;34.30;45.60;;;;;;4994601;28;20161;-74
2022/09/30 11:50:00;;;;;;;1.48;1.48;;;35.60;41.10;;;;;;5006660;28;20751;-73
2022/09/30 11:52:37;;;;;;;1.67;1.60;;;35.40;41.40;;;;;;4996609;28;20200;-73
2022/09/30 11:55:07;;;;;;;2.83;1.80;;;35.60;40.20;;;;;;4994465;28;20189;-73
2022/09/30 11:57:54;;;;;;;1.42;1.27;;;35.20;41.00;;;;;;5010064;28;20181;-74
2022/09/30 12:00:20;;;;;;;1.15;1.13;;;35.90;40.30;;;;;;5006936;28;20660;-75
2022/09/30 12:03:24;;;;;;;1.10;1.10;;;34.90;40.40;;;;;;5008840;28;20205;-73
2022/09/30 12:06:02;;;;;;;1.58;1.48;;;32.40;43.40;;;;;;5001010;28;20227;-77
2022/09/30 12:08:34;;;;;;;1.73;1.00;;;30.10;46.60;;;;;;5013690;28;20184;-75
2022/09/30 12:11:27;;;;;;;1.10;1.10;;;30.60;46.60;;;;;;5008166;28;20184;-75
2022/09/30 12:13:59;;;;;;;1.20;1.20;;;31.80;44.80;;;;;;5011957;28;20216;-77
2022/09/30 12:16:30;;;;;;;2.10;1.85;;;32.50;44.70;;;;;;5010462;28;20180;-76
2022/09/30 12:19:03;;;;;;;1.92;1.70;;;32.30;44.30;;;;;;5010591;28;20192;-75
2022/09/30 12:21:39;;;;;;;2.28;1.40;;;31.50;45.20;;;;;;5012760;28;20200;-72
2022/09/30 12:24:16;;;;;;;1.40;1.40;;;31.30;45.10;;;;;;5013701;28;20176;-73
2022/09/30 12:26:41;;;;;;;1.40;1.35;;;31.00;45.60;;;;;;5015009;28;20275;-71
2022/09/30 12:32:36;;;;;;;0.95;0.95;;;29.70;47.60;;;;;;5013203;28;20216;-73
2022/09/30 12:35:29;;;;;;;1.40;1.30;;;29.60;46.50;;;;;;4990443;28;20221;-72
2022/09/30 12:38:29;;;;;;;1.17;1.10;;;29.50;46.20;;;;;;4993586;28;20178;-75
2022/09/30 12:41:01;;;;;;;1.17;1.17;;;29.00;46.70;;;;;;4993935;28;20182;-73
2022/09/30 12:43:36;;;;;;;1.77;1.25;;;27.90;49.20;;;;;;5002535;28;20259;-74
2022/09/30 12:46:20;;;;;;;0.80;0.80;;;27.60;51.00;;;;;;5013296;28;20180;-74
2022/09/30 12:48:56;;;;;;;1.30;1.25;;;27.30;50.00;;;;;;5005813;28;20177;-73
2022/09/30 12:51:24;;;;;;;1.20;1.10;;;26.70;51.50;;;;;;5005483;28;20272;-73
2022/09/30 12:53:56;;;;;;;1.10;1.10;;;26.10;51.60;;;;;;5002726;28;20181;-74
2022/09/30 12:56:27;;;;;;;1.95;1.38;;;25.40;52.40;;;;;;5005435;28;20200;-75
2022/09/30 12:58:53;;;;;;;2.05;1.25;;;25.00;53.50;;;;;;5000914;28;20541;-75
2022/09/30 13:01:22;;;;;;;1.48;1.05;;;25.30;53.90;;;;;;5003042;28;20610;-75
2022/09/30 13:03:51;;;;;;;1.27;1.17;;;25.80;53.70;;;;;;5001768;28;20257;-73
2022/09/30 13:06:19;;;;;;;1.17;1.08;;;26.30;53.70;;;;;;5004160;28;20182;-73
2022/09/30 13:09:15;;;;;;;1.25;1.25;;;26.30;53.00;;;;;;5009061;28;20220;-72
2022/09/30 13:11:41;;;;;;;1.10;1.10;;;25.50;53.80;;;;;;5011862;28;20284;-72
2022/09/30 13:14:34;;;;;;;1.30;1.20;;;25.20;54.30;;;;;;5011372;28;20292;-74
2022/09/30 13:17:00;;;;;;;1.23;1.13;;;24.80;55.10;;;;;;4999981;28;20679;-73
2022/09/30 13:19:43;;;;;;;1.00;1.00;;;24.90;56.90;;;;;;5011011;28;20185;-73
2022/09/30 13:22:34;;;;;;;4.15;1.02;;;24.60;55.50;;;;;;5000417;28;20193;-73
2022/09/30 13:25:03;;;;;;;3.33;1.20;;;25.00;56.20;;;;;;4994164;28;20261;-73
2022/09/30 13:27:54;;;;;;;1.15;0.90;;;25.40;56.70;;;;;;4994025;28;20657;-73
2022/09/30 13:30:19;;;;;;;1.90;1.20;;;25.90;55.60;;;;;;5011483;28;20179;-73
2022/09/30 13:33:01;;;;;;;1.48;1.38;;;25.30;55.70;;;;;;5011724;28;20200;-77
2022/09/30 13:35:29;;;;;;;0.90;0.90;;;24.90;55.90;;;;;;5012107;28;20200;-73